createdAt,value
2022-12-11T00:01:20.550Z,-2.20
2022-12-11T00:03:48.559Z,-2.20
2022-12-11T00:06:18.207Z,-2.20
2022-12-11T00:08:46.101Z,-2.20
2022-12-11T00:11:16.981Z,-2.20
2022-12-11T00:13:44.137Z,-2.20
2022-12-11T00:16:11.671Z,-2.20
2022-12-11T00:18:38.925Z,-2.20
2022-12-11T00:21:08.951Z,-2.10
2022-12-11T00:23:36.876Z,-2.20
2022-12-11T00:26:09.534Z,-2.30
2022-12-11T00:28:36.817Z,-2.10
2022-12-11T00:31:05.909Z,-2.00
2022-12-11T00:33:33.520Z,-2.00
2022-12-11T00:36:00.612Z,-2.00
2022-12-11T00:38:27.715Z,-2.10
2022-12-11T00:40:59.438Z,-2.20
2022-12-11T00:43:26.574Z,-2.10
2022-12-11T00:45:53.647Z,-2.10
2022-12-11T00:48:20.929Z,-2.20
2022-12-11T00:50:48.033Z,-2.30
2022-12-11T00:53:15.114Z,-2.30
2022-12-11T00:55:43.923Z,-2.30
2022-12-11T00:58:12.377Z,-2.30
2022-12-11T01:00:40.261Z,-2.30
2022-12-11T01:03:07.539Z,-2.30
2022-12-11T01:05:34.910Z,-2.30
2022-12-11T01:08:02.098Z,-2.20
2022-12-11T01:10:29.277Z,-2.30
2022-12-11T01:13:04.823Z,-2.30
2022-12-11T01:15:41.581Z,-2.30
2022-12-11T01:18:10.498Z,-2.10
2022-12-11T01:20:40.057Z,-2.10
2022-12-11T01:23:07.142Z,-2.10
2022-12-11T01:25:38.230Z,-2.10
2022-12-11T01:28:06.064Z,-2.10
2022-12-11T01:30:33.270Z,-2.00
2022-12-11T01:33:01.096Z,-2.00
2022-12-11T01:35:28.756Z,-1.90
2022-12-11T01:37:56.215Z,-1.90
2022-12-11T01:40:23.687Z,-1.90
2022-12-11T01:42:50.830Z,-1.90
2022-12-11T01:45:48.217Z,-1.80
2022-12-11T01:48:20.788Z,-1.70
2022-12-11T01:50:57.760Z,-1.70
2022-12-11T01:53:30.221Z,-1.80
2022-12-11T01:55:59.055Z,-1.90
2022-12-11T01:58:35.435Z,-2.00
2022-12-11T02:01:03.290Z,-2.10
2022-12-11T02:03:30.519Z,-2.10
2022-12-11T02:06:01.348Z,-2.00
2022-12-11T02:08:29.346Z,-2.00
2022-12-11T02:11:11.547Z,-1.90
2022-12-11T02:13:47.101Z,-1.90
2022-12-11T02:16:29.192Z,-1.90
2022-12-11T02:19:08.190Z,-1.90
2022-12-11T02:21:41.939Z,-1.80
2022-12-11T02:24:53.089Z,-1.80
2022-12-11T02:27:45.547Z,-1.80
2022-12-11T02:30:16.153Z,-1.80
2022-12-11T02:32:53.621Z,-2.00
2022-12-11T02:35:30.415Z,-2.00
2022-12-11T02:38:02.907Z,-2.00
2022-12-11T02:40:32.887Z,-2.10
2022-12-11T02:43:04.556Z,-2.10
2022-12-11T02:45:32.649Z,-2.20
2022-12-11T02:48:03.942Z,-2.40
2022-12-11T02:50:31.719Z,-2.50
2022-12-11T02:53:01.026Z,-2.40
2022-12-11T02:55:29.572Z,-2.40
2022-12-11T02:58:19.132Z,-2.40
2022-12-11T03:00:46.667Z,-2.30
2022-12-11T03:03:14.203Z,-2.30
2022-12-11T03:05:42.812Z,-2.10
2022-12-11T03:08:09.927Z,-2.00
2022-12-11T03:10:37.217Z,-2.00
2022-12-11T03:13:05.086Z,-2.10
2022-12-11T03:16:07.336Z,-2.10
2022-12-11T03:18:52.852Z,-2.20
2022-12-11T03:21:28.955Z,-2.10
2022-12-11T03:24:07.271Z,-2.20
2022-12-11T03:26:41.344Z,-2.20
2022-12-11T03:29:39.612Z,-2.20
2022-12-11T03:32:12.359Z,-2.10
2022-12-11T03:34:47.095Z,-2.00
2022-12-11T03:37:15.501Z,-2.10
2022-12-11T03:39:52.210Z,-2.00
2022-12-11T03:42:21.896Z,-1.90
2022-12-11T03:44:51.348Z,-1.90
2022-12-11T03:47:22.645Z,-1.90
2022-12-11T03:49:50.573Z,-1.90
2022-12-11T03:52:18.268Z,-1.90
2022-12-11T03:54:48.965Z,-2.00
2022-12-11T03:57:19.209Z,-2.10
2022-12-11T03:59:46.584Z,-2.30
2022-12-11T04:02:13.837Z,-2.30
2022-12-11T04:04:42.525Z,-2.40
2022-12-11T04:07:09.984Z,-2.50
2022-12-11T04:09:37.333Z,-2.60
2022-12-11T04:12:04.661Z,-2.60
2022-12-11T04:14:50.755Z,-2.60
2022-12-11T04:17:37.823Z,-2.50
2022-12-11T04:20:24.978Z,-2.50
2022-12-11T04:23:10.582Z,-2.60
2022-12-11T04:25:37.661Z,-2.50
2022-12-11T04:28:04.750Z,-2.50
2022-12-11T04:30:34.318Z,-2.40
2022-12-11T04:33:02.332Z,-2.40
2022-12-11T04:35:29.763Z,-2.40
2022-12-11T04:37:56.780Z,-2.40
2022-12-11T04:40:24.090Z,-2.50
2022-12-11T04:42:51.128Z,-2.60
2022-12-11T04:45:18.384Z,-2.70
2022-12-11T04:47:45.516Z,-2.70
2022-12-11T04:50:14.501Z,-2.80
2022-12-11T04:52:42.100Z,-2.80
2022-12-11T04:55:10.554Z,-3.00
2022-12-11T04:57:37.986Z,-3.10
2022-12-11T05:00:08.714Z,-3.10
2022-12-11T05:02:37.396Z,-3.10
2022-12-11T05:05:06.126Z,-3.10
2022-12-11T05:07:33.224Z,-3.20
2022-12-11T05:10:00.374Z,-3.30
2022-12-11T05:12:28.033Z,-3.20
2022-12-11T05:14:55.510Z,-3.30
2022-12-11T05:17:22.729Z,-3.30
2022-12-11T05:19:52.063Z,-3.40
2022-12-11T05:22:19.290Z,-3.50
2022-12-11T05:24:46.396Z,-3.50
2022-12-11T05:27:13.495Z,-3.50
2022-12-11T05:29:40.802Z,-3.40
2022-12-11T05:32:07.972Z,-3.30
2022-12-11T05:34:35.092Z,-3.30
2022-12-11T05:37:02.430Z,-3.40
2022-12-11T05:39:29.583Z,-3.40
2022-12-11T05:41:56.731Z,-3.40
2022-12-11T05:44:23.868Z,-3.40
2022-12-11T05:46:51.059Z,-3.50
2022-12-11T05:49:20.017Z,-3.60
2022-12-11T05:51:47.433Z,-3.70
2022-12-11T05:54:14.628Z,-3.70
2022-12-11T05:56:41.929Z,-3.70
2022-12-11T05:59:09.202Z,-3.70
2022-12-11T06:01:41.763Z,-3.70
2022-12-11T06:04:10.677Z,-3.80
2022-12-11T06:06:38.466Z,-3.70
2022-12-11T06:09:06.286Z,-3.70
2022-12-11T06:11:34.015Z,-3.70
2022-12-11T06:14:03.199Z,-3.60
2022-12-11T06:16:30.481Z,-3.70
2022-12-11T06:18:58.698Z,-3.70
2022-12-11T06:21:32.048Z,-3.60
2022-12-11T06:24:00.911Z,-3.50
2022-12-11T06:26:29.207Z,-3.50
2022-12-11T06:28:56.510Z,-3.50
2022-12-11T06:31:23.563Z,-3.40
2022-12-11T06:33:50.848Z,-3.40
2022-12-11T06:36:20.432Z,-3.40
2022-12-11T06:38:50.494Z,-3.40
2022-12-11T06:41:17.630Z,-3.60
2022-12-11T06:43:45.177Z,-3.60
2022-12-11T06:46:20.095Z,-3.60
2022-12-11T06:48:48.089Z,-3.50
2022-12-11T06:51:18.407Z,-3.40
2022-12-11T06:53:45.910Z,-3.30
2022-12-11T06:56:14.910Z,-3.30
2022-12-11T06:58:42.986Z,-3.20
2022-12-11T07:01:19.760Z,-3.20
2022-12-11T07:03:46.968Z,-3.10
2022-12-11T07:06:14.844Z,-3.10
2022-12-11T07:08:42.288Z,-3.10
2022-12-11T07:11:12.552Z,-3.20
2022-12-11T07:13:39.693Z,-3.30
2022-12-11T07:16:11.066Z,-3.30
2022-12-11T07:18:39.719Z,-3.40
2022-12-11T07:21:07.741Z,-3.20
2022-12-11T07:23:35.519Z,-3.30
2022-12-11T07:26:14.475Z,-3.30
2022-12-11T07:28:42.065Z,-3.40
2022-12-11T07:31:18.174Z,-3.40
2022-12-11T07:33:45.724Z,-3.40
2022-12-11T07:36:14.771Z,-3.40
2022-12-11T07:38:42.127Z,-3.30
2022-12-11T07:41:12.452Z,-3.20
2022-12-11T07:43:39.971Z,-3.10
2022-12-11T07:46:19.072Z,-2.90
2022-12-11T07:48:47.827Z,-2.80
2022-12-11T07:51:26.694Z,-2.60
2022-12-11T07:54:02.166Z,-2.30
2022-12-11T07:56:30.476Z,-2.10
2022-12-11T07:59:01.042Z,-1.90
2022-12-11T08:01:30.499Z,-2.10
2022-12-11T08:03:58.081Z,-2.00
2022-12-11T08:06:27.574Z,-1.80
2022-12-11T08:08:55.422Z,-1.70
2022-12-11T08:11:23.270Z,-1.70
2022-12-11T08:13:50.438Z,-1.70
2022-12-11T08:16:18.807Z,-1.80
2022-12-11T08:18:47.607Z,-1.70
2022-12-11T08:21:26.226Z,-1.80
2022-12-11T08:23:54.263Z,-1.80
2022-12-11T08:26:24.240Z,-1.70
2022-12-11T08:28:51.682Z,-1.40
2022-12-11T08:31:19.944Z,-1.80
2022-12-11T08:33:48.099Z,-2.30
2022-12-11T08:36:17.847Z,-2.20
2022-12-11T08:38:45.247Z,-1.90
2022-12-11T08:41:23.318Z,-1.60
2022-12-11T08:43:54.963Z,-1.70
2022-12-11T08:46:24.316Z,-1.70
2022-12-11T08:48:51.707Z,-1.60
2022-12-11T08:51:22.875Z,-1.30
2022-12-11T08:53:51.393Z,-1.20
2022-12-11T08:56:20.446Z,-0.40
2022-12-11T08:58:47.638Z,0.70
2022-12-11T09:01:23.523Z,1.10
2022-12-11T09:03:52.041Z,1.70
2022-12-11T09:06:21.392Z,2.80
2022-12-11T09:08:52.502Z,3.70
2022-12-11T09:11:30.354Z,4.10
2022-12-11T09:13:58.918Z,4.40
2022-12-11T09:16:29.506Z,5.10
2022-12-11T09:18:58.931Z,5.60
2022-12-11T09:21:29.418Z,5.10
2022-12-11T09:23:58.798Z,5.30
2022-12-11T09:26:26.839Z,5.80
2022-12-11T09:28:54.263Z,6.10
2022-12-11T09:31:27.536Z,6.60
2022-12-11T09:33:56.742Z,6.30
2022-12-11T09:36:24.214Z,6.50
2022-12-11T09:38:51.950Z,6.20
2022-12-11T09:41:36.027Z,5.80
2022-12-11T09:44:43.933Z,6.60
2022-12-11T09:47:40.333Z,6.50
2022-12-11T09:50:19.500Z,6.70
2022-12-11T09:53:17.171Z,7.30
2022-12-11T09:56:04.691Z,7.20
2022-12-11T09:58:55.348Z,7.60
2022-12-11T10:02:11.528Z,7.70
2022-12-11T10:05:08.199Z,7.90
2022-12-11T10:08:00.673Z,6.00
2022-12-11T10:11:09.857Z,6.70
2022-12-11T10:14:08.860Z,6.70
2022-12-11T10:16:44.909Z,6.50
2022-12-11T10:19:25.828Z,8.20
2022-12-11T10:21:54.824Z,7.00
2022-12-11T10:25:12.394Z,8.10
2022-12-11T10:27:40.946Z,7.50
2022-12-11T10:30:19.799Z,8.50
2022-12-11T10:33:21.979Z,9.20
2022-12-11T10:35:57.048Z,9.30
2022-12-11T10:38:31.106Z,8.90
2022-12-11T10:41:21.089Z,9.30
2022-12-11T10:43:50.685Z,9.90
2022-12-11T10:46:23.291Z,9.90
2022-12-11T10:49:01.063Z,10.70
2022-12-11T10:51:36.290Z,10.30
2022-12-11T10:54:31.291Z,11.20
2022-12-11T10:56:59.760Z,9.20
2022-12-11T10:59:51.376Z,10.50
2022-12-11T11:02:31.475Z,11.30
2022-12-11T11:05:01.234Z,10.90
2022-12-11T11:07:30.272Z,10.40
2022-12-11T11:10:17.975Z,9.60
2022-12-11T11:12:47.510Z,10.40
2022-12-11T11:15:27.250Z,10.50
2022-12-11T11:17:56.939Z,10.80
2022-12-11T11:20:30.725Z,10.40
2022-12-11T11:23:01.693Z,10.20
2022-12-11T11:25:31.781Z,10.90
2022-12-11T11:28:16.501Z,10.20
2022-12-11T11:31:03.280Z,9.20
2022-12-11T11:33:33.087Z,11.00
2022-12-11T11:36:06.293Z,11.80
2022-12-11T11:38:41.403Z,11.90
2022-12-11T11:41:24.171Z,12.00
2022-12-11T11:44:00.832Z,12.30
2022-12-11T11:46:38.210Z,11.10
2022-12-11T11:49:28.316Z,9.90
2022-12-11T11:52:13.524Z,9.50
2022-12-11T11:55:10.787Z,10.80
2022-12-11T11:58:07.505Z,10.30
2022-12-11T12:00:34.652Z,10.50
2022-12-11T12:03:09.504Z,10.20
2022-12-11T12:05:53.677Z,11.80
2022-12-11T12:08:58.980Z,11.60
2022-12-11T12:11:59.177Z,11.70
2022-12-11T12:15:15.056Z,11.90
2022-12-11T12:18:14.185Z,12.00
2022-12-11T12:21:26.825Z,13.20
2022-12-11T12:24:24.998Z,12.40
2022-12-11T12:27:43.383Z,12.40
2022-12-11T12:30:22.987Z,11.10
2022-12-11T12:33:32.253Z,12.60
2022-12-11T12:36:33.147Z,13.10
2022-12-11T12:39:26.510Z,13.20
2022-12-11T12:42:11.757Z,12.80
2022-12-11T12:45:22.000Z,11.00
2022-12-11T12:47:53.319Z,10.80
2022-12-11T12:50:24.984Z,12.10
2022-12-11T12:52:54.428Z,11.30
2022-12-11T12:55:31.885Z,12.10
2022-12-11T12:58:02.142Z,12.70
2022-12-11T13:00:32.755Z,11.60
2022-12-11T13:03:04.694Z,11.90
2022-12-11T13:05:34.523Z,12.20
2022-12-11T13:08:04.557Z,11.70
2022-12-11T13:10:35.441Z,11.00
2022-12-11T13:13:04.143Z,10.20
2022-12-11T13:15:43.980Z,9.80
2022-12-11T13:18:31.175Z,11.10
2022-12-11T13:20:58.356Z,11.50
2022-12-11T13:23:34.139Z,11.90
2022-12-11T13:26:04.480Z,11.90
2022-12-11T13:28:48.776Z,11.80
2022-12-11T13:31:39.755Z,12.20
2022-12-11T13:34:21.420Z,12.20
2022-12-11T13:36:51.262Z,11.90
2022-12-11T13:39:30.615Z,11.00
2022-12-11T13:42:02.768Z,10.70
2022-12-11T13:44:33.927Z,10.30
2022-12-11T13:47:03.233Z,9.10
2022-12-11T13:49:37.152Z,7.70
2022-12-11T13:52:05.231Z,5.80
2022-12-11T13:54:36.458Z,5.50
2022-12-11T13:57:19.023Z,5.30
2022-12-11T13:59:53.350Z,6.10
2022-12-11T14:02:38.936Z,5.40
2022-12-11T14:05:09.322Z,5.40
2022-12-11T14:07:40.873Z,6.60
2022-12-11T14:10:21.508Z,8.20
2022-12-11T14:13:05.741Z,8.50
2022-12-11T14:15:35.345Z,9.50
2022-12-11T14:18:03.461Z,8.70
2022-12-11T14:20:34.905Z,8.30
2022-12-11T14:23:19.832Z,8.80
2022-12-11T14:26:18.027Z,7.80
2022-12-11T14:28:45.262Z,8.10
2022-12-11T14:31:20.573Z,8.40
2022-12-11T14:33:52.376Z,9.50
2022-12-11T14:36:20.757Z,9.30
2022-12-11T14:38:57.627Z,9.10
2022-12-11T14:41:56.771Z,8.70
2022-12-11T14:44:27.383Z,7.90
2022-12-11T14:47:16.735Z,7.70
2022-12-11T14:50:22.218Z,5.90
2022-12-11T14:52:56.220Z,4.20
2022-12-11T14:55:33.000Z,4.20
2022-12-11T14:58:04.624Z,3.50
2022-12-11T15:00:37.623Z,3.80
2022-12-11T15:03:07.991Z,4.30
2022-12-11T15:05:40.878Z,4.50
2022-12-11T15:08:29.135Z,4.40
2022-12-11T15:11:09.925Z,4.10
2022-12-11T15:13:48.143Z,4.10
2022-12-11T15:16:15.554Z,3.70
2022-12-11T15:18:43.189Z,2.80
2022-12-11T15:21:12.459Z,2.80
2022-12-11T15:24:07.084Z,2.30
2022-12-11T15:26:57.542Z,1.50
2022-12-11T15:29:38.138Z,0.70
2022-12-11T15:32:31.453Z,0.00
2022-12-11T15:35:00.461Z,-0.40
2022-12-11T15:37:30.247Z,-0.60
2022-12-11T15:39:59.698Z,-0.90
2022-12-11T15:42:32.773Z,-1.10
2022-12-11T15:45:00.488Z,-1.20
2022-12-11T15:47:30.548Z,-1.30
2022-12-11T15:50:00.169Z,-1.60
2022-12-11T15:52:27.475Z,-1.70
2022-12-11T15:54:54.571Z,-1.80
2022-12-11T15:57:24.056Z,-1.90
2022-12-11T15:59:53.116Z,-2.10
2022-12-11T16:02:20.332Z,-2.10
2022-12-11T16:04:47.494Z,-2.20
2022-12-11T16:07:21.179Z,-2.20
2022-12-11T16:09:48.773Z,-2.30
2022-12-11T16:12:16.157Z,-2.40
2022-12-11T16:14:45.379Z,-2.50
2022-12-11T16:17:14.372Z,-2.50
2022-12-11T16:19:42.625Z,-2.60
2022-12-11T16:22:10.861Z,-2.60
2022-12-11T16:24:38.758Z,-2.60
2022-12-11T16:27:06.787Z,-2.60
2022-12-11T16:29:35.307Z,-2.60
2022-12-11T16:32:02.409Z,-2.50
2022-12-11T16:34:29.585Z,-2.50
2022-12-11T16:37:00.522Z,-2.80
2022-12-11T16:39:27.922Z,-2.90
2022-12-11T16:41:54.930Z,-2.90
2022-12-11T16:44:24.219Z,-3.00
2022-12-11T16:46:51.971Z,-2.90
2022-12-11T16:49:19.435Z,-2.90
2022-12-11T16:51:46.568Z,-3.00
2022-12-11T16:54:13.763Z,-3.00
2022-12-11T16:56:40.794Z,-3.10
2022-12-11T16:59:08.159Z,-3.20
2022-12-11T17:01:35.451Z,-3.20
2022-12-11T17:04:02.600Z,-3.20
2022-12-11T17:06:29.759Z,-3.20
2022-12-11T17:08:57.302Z,-3.10
2022-12-11T17:11:27.918Z,-3.30
2022-12-11T17:13:56.269Z,-3.30
2022-12-11T17:16:26.211Z,-3.20
2022-12-11T17:18:53.601Z,-3.20
2022-12-11T17:21:22.351Z,-3.10
2022-12-11T17:23:50.561Z,-3.00
2022-12-11T17:26:18.434Z,-3.00
2022-12-11T17:28:45.866Z,-2.90
2022-12-11T17:31:18.102Z,-2.80
2022-12-11T17:33:46.621Z,-2.70
2022-12-11T17:36:16.750Z,-2.60
2022-12-11T17:38:43.924Z,-2.50
2022-12-11T17:41:19.830Z,-2.50
2022-12-11T17:43:49.445Z,-2.30
2022-12-11T17:46:16.703Z,-2.30
2022-12-11T17:48:43.910Z,-2.20
2022-12-11T17:51:13.392Z,-2.40
2022-12-11T17:53:40.615Z,-2.30
2022-12-11T17:56:09.015Z,-2.40
2022-12-11T17:58:36.147Z,-2.40
2022-12-11T18:01:08.741Z,-2.40
2022-12-11T18:03:36.942Z,-2.50
2022-12-11T18:06:10.546Z,-2.60
2022-12-11T18:08:38.604Z,-2.70
2022-12-11T18:11:08.553Z,-2.70
2022-12-11T18:13:36.107Z,-2.80
2022-12-11T18:16:18.629Z,-3.00
2022-12-11T18:18:46.564Z,-3.10
2022-12-11T18:21:20.103Z,-3.20
2022-12-11T18:23:47.543Z,-3.20
2022-12-11T18:26:14.752Z,-3.30
2022-12-11T18:28:42.567Z,-3.20
2022-12-11T18:31:10.684Z,-3.30
2022-12-11T18:33:40.091Z,-3.30
2022-12-11T18:36:07.927Z,-3.40
2022-12-11T18:38:35.482Z,-3.40
2022-12-11T18:41:07.212Z,-3.40
2022-12-11T18:43:34.440Z,-3.50
2022-12-11T18:46:06.620Z,-3.50
2022-12-11T18:48:33.816Z,-3.60
2022-12-11T18:51:01.316Z,-3.70
2022-12-11T18:53:28.970Z,-3.70
2022-12-11T18:56:00.391Z,-3.60
2022-12-11T18:58:28.138Z,-3.70
2022-12-11T19:00:55.410Z,-3.90
2022-12-11T19:03:22.633Z,-4.00
2022-12-11T19:05:49.895Z,-4.00
2022-12-11T19:08:17.135Z,-4.00
2022-12-11T19:10:47.058Z,-4.10
2022-12-11T19:13:14.676Z,-4.20
2022-12-11T19:15:44.451Z,-4.10
2022-12-11T19:18:11.830Z,-4.20
2022-12-11T19:20:49.225Z,-4.30
2022-12-11T19:23:18.332Z,-4.20
2022-12-11T19:25:48.054Z,-3.90
2022-12-11T19:28:16.655Z,-4.00
2022-12-11T19:30:45.700Z,-4.10
2022-12-11T19:33:13.168Z,-4.00
2022-12-11T19:35:40.790Z,-4.00
2022-12-11T19:38:08.557Z,-3.90
2022-12-11T19:40:45.211Z,-3.70
2022-12-11T19:43:12.367Z,-3.60
2022-12-11T19:45:39.521Z,-3.50
2022-12-11T19:48:07.073Z,-3.50
2022-12-11T19:50:36.216Z,-3.60
2022-12-11T19:53:04.356Z,-3.60
2022-12-11T19:55:31.526Z,-3.60
2022-12-11T19:57:58.706Z,-3.70
2022-12-11T20:00:25.788Z,-3.80
2022-12-11T20:02:53.110Z,-3.70
2022-12-11T20:05:20.197Z,-3.60
2022-12-11T20:07:47.379Z,-3.70
2022-12-11T20:10:15.798Z,-3.70
2022-12-11T20:12:42.965Z,-3.60
2022-12-11T20:15:11.592Z,-3.60
2022-12-11T20:17:43.399Z,-3.40
2022-12-11T20:20:11.320Z,-3.40
2022-12-11T20:22:38.471Z,-3.50
2022-12-11T20:25:06.282Z,-3.30
2022-12-11T20:27:33.364Z,-3.00
2022-12-11T20:30:00.476Z,-3.10
2022-12-11T20:32:27.718Z,-3.00
2022-12-11T20:34:58.411Z,-3.10
2022-12-11T20:37:26.144Z,-3.00
2022-12-11T20:39:53.288Z,-2.90
2022-12-11T20:42:20.555Z,-2.80
2022-12-11T20:44:49.449Z,-3.00
2022-12-11T20:47:19.926Z,-3.00
2022-12-11T20:49:48.271Z,-2.90
2022-12-11T20:52:16.080Z,-3.00
2022-12-11T20:54:43.364Z,-3.10
2022-12-11T20:57:11.238Z,-3.00
2022-12-11T20:59:38.328Z,-3.10
2022-12-11T21:02:05.783Z,-3.10
2022-12-11T21:04:32.926Z,-3.00
2022-12-11T21:07:00.926Z,-3.00
2022-12-11T21:09:29.348Z,-3.10
2022-12-11T21:11:58.856Z,-3.10
2022-12-11T21:14:25.981Z,-3.20
2022-12-11T21:16:53.158Z,-3.20
2022-12-11T21:19:21.315Z,-3.00
2022-12-11T21:21:49.338Z,-3.00
2022-12-11T21:24:22.111Z,-3.00
2022-12-11T21:26:49.784Z,-3.20
2022-12-11T21:29:16.985Z,-3.20
2022-12-11T21:31:44.547Z,-3.20
2022-12-11T21:34:11.690Z,-3.10
2022-12-11T21:36:39.138Z,-3.00
2022-12-11T21:39:06.645Z,-3.00
2022-12-11T21:41:34.250Z,-3.00
2022-12-11T21:46:48.549Z,-3.00
2022-12-11T21:49:15.644Z,-3.00
2022-12-11T21:51:47.122Z,-3.00
2022-12-11T21:54:18.312Z,-3.00
2022-12-11T21:56:46.308Z,-3.00
2022-12-11T21:59:13.894Z,-3.10
2022-12-11T22:01:45.985Z,-3.10
2022-12-11T22:04:14.981Z,-3.00
2022-12-11T22:06:43.557Z,-3.00
2022-12-11T22:09:12.631Z,-3.10
2022-12-11T22:11:41.133Z,-3.00
2022-12-11T22:14:16.282Z,-2.90
2022-12-11T22:16:43.982Z,-3.00
2022-12-11T22:19:11.827Z,-3.10
2022-12-11T22:21:39.102Z,-3.10
2022-12-11T22:24:06.484Z,-3.10
2022-12-11T22:26:33.621Z,-3.00
2022-12-11T22:29:00.753Z,-3.00
2022-12-11T22:31:28.314Z,-3.00
2022-12-11T22:33:55.832Z,-3.00
2022-12-11T22:36:24.389Z,-3.00
2022-12-11T22:38:51.475Z,-2.90
2022-12-11T22:41:30.752Z,-2.90
2022-12-11T22:43:58.909Z,-2.80
2022-12-11T22:46:29.378Z,-2.90
2022-12-11T22:48:57.903Z,-2.90
2022-12-11T22:51:25.046Z,-2.90
2022-12-11T22:53:52.125Z,-3.00
2022-12-11T22:56:19.632Z,-3.00
2022-12-11T22:58:46.742Z,-3.00
2022-12-11T23:01:17.215Z,-3.00
2022-12-11T23:03:44.556Z,-3.00
2022-12-11T23:06:15.840Z,-3.00
2022-12-11T23:08:43.416Z,-3.00
2022-12-11T23:11:24.074Z,-3.00
2022-12-11T23:13:51.506Z,-3.00
2022-12-11T23:16:18.759Z,-2.90
2022-12-11T23:18:45.907Z,-3.00
2022-12-11T23:21:13.937Z,-3.10
2022-12-11T23:23:41.569Z,-3.10
2022-12-11T23:26:11.149Z,-3.10
2022-12-11T23:28:38.873Z,-3.10
2022-12-11T23:31:06.836Z,-3.20
2022-12-11T23:33:34.231Z,-3.20
2022-12-11T23:36:01.312Z,-3.20
2022-12-11T23:38:28.455Z,-3.00
2022-12-11T23:40:55.943Z,-3.00
2022-12-11T23:43:23.523Z,-3.00
2022-12-11T23:45:50.615Z,-2.90
2022-12-11T23:48:17.852Z,-2.80
2022-12-11T23:50:45.646Z,-2.90
2022-12-11T23:53:12.940Z,-2.80
2022-12-11T23:55:42.982Z,-2.80
2022-12-11T23:58:10.951Z,-2.90
